Francistown, Botswana

11:19 AM CAT on June 24, 2017 (GMT +0200)
Francistown | | Change Station

Elev 3281 ft 21.22 °S, 27.50 °E | Updated 1 hour ago

Mostly Cloudy
Mostly Cloudy
61 °F
Feels Like 61 °F
N
13
Wind Variable Wind from East

Today
High -- | Low -- °F
--% Chance of Precip.
Yesterday
High -- | Low -- °F
Precip. -- in
Pressure 30.39 in
Visibility 6.2 miles
Clouds Scattered Clouds 1500 ft
Mostly Cloudy 6500 ft
Dew Point 48 °F
Humidity 63%
Rainfall 0.00 in
Snow Depth Not available.
6:47 AM 5:37 PM
New Moon, 0% visible
METAR FBFT 240800Z 09011KT 050V110 9999 SCT015 BKN065 16/09 Q1029
Pressure 30.39 in
Visibility 6.2 miles
Clouds Scattered Clouds 1500 ft
Mostly Cloudy 6500 ft
Dew Point 48 °F
Humidity 63%
Rainfall 0.00 in
Snow Depth Not available.
6:47 AM 5:37 PM
New Moon, 0% visible
METAR FBFT 240800Z 09011KT 050V110 9999 SCT015 BKN065 16/09 Q1029

Get Severe Weather Alerts

Thanks for signing up!

Be on the lookout for a verification email in your inbox.

You'll start receiving the daily forecast at 6 AM.

×

10-Day Weather Forecast

No radar image for this location.
×

Almanac

Astronomy

Jun. 24, 2017 Rise Set
Actual Time
Civil Twilight
Nautical Twilight
Astronomical Twilight
Moon
Length of Visible Light
Length of Day
Tomorrow will be .
, % of the Moon is Illuminated

Today's Extremes

Country Highs Country Lows

Community

WunderPhotos

Category 6

Welcome to Category 6. This is the collective home for Weather Underground's featured writeups by Dr. Jeff Masters (right), Bob Henson (left), Chris Burt, and other regular contributors.

Nearby

Air Quality

  Air Quality AQ Index Pollutant
Not available.

Snow Depth

Station Depth Elevation

Earthquake Activity

City Distance Mag. Time & Date
Minimum magnitude displayed is 2.5.

Coastal Water Temperatures

Place Temperature

Stations

Nearby Weather Stations

Station Location Temp. Windchill Dew Point Humidity Wind Precip. Elev Updated Type